sensor_id;sensor_type;location;lat;lon;timestamp;temperature;humidity
15160;DHT22;7680;48.800;9.680;2023-03-23T00:01:07;9.60;99.90
15160;DHT22;7680;48.800;9.680;2023-03-23T00:03:41;9.60;99.90
15160;DHT22;7680;48.800;9.680;2023-03-23T00:06:14;9.70;99.90
15160;DHT22;7680;48.800;9.680;2023-03-23T00:08:51;9.80;99.90
15160;DHT22;7680;48.800;9.680;2023-03-23T00:11:28;9.80;99.90
15160;DHT22;7680;48.800;9.680;2023-03-23T00:14:01;9.80;99.90
15160;DHT22;7680;48.800;9.680;2023-03-23T00:16:33;9.70;99.90
15160;DHT22;7680;48.800;9.680;2023-03-23T00:19:10;9.60;99.90
15160;DHT22;7680;48.800;9.680;2023-03-23T00:21:43;9.60;99.90
15160;DHT22;7680;48.800;9.680;2023-03-23T00:24:18;9.60;99.90
15160;DHT22;7680;48.800;9.680;2023-03-23T00:26:50;9.70;99.90
15160;DHT22;7680;48.800;9.680;2023-03-23T00:29:23;9.70;99.90
15160;DHT22;7680;48.800;9.680;2023-03-23T00:31:56;9.70;99.90
15160;DHT22;7680;48.800;9.680;2023-03-23T00:34:28;9.80;99.90
15160;DHT22;7680;48.800;9.680;2023-03-23T00:37:02;9.80;99.90
15160;DHT22;7680;48.800;9.680;2023-03-23T00:39:37;9.80;99.90
15160;DHT22;7680;48.800;9.680;2023-03-23T00:42:16;9.90;99.90
15160;DHT22;7680;48.800;9.680;2023-03-23T00:44:48;9.90;99.90
15160;DHT22;7680;48.800;9.680;2023-03-23T00:47:20;9.90;99.90
15160;DHT22;7680;48.800;9.680;2023-03-23T00:49:53;10.00;99.90
15160;DHT22;7680;48.800;9.680;2023-03-23T00:52:26;10.00;99.90
15160;DHT22;7680;48.800;9.680;2023-03-23T00:55:00;9.90;99.90
15160;DHT22;7680;48.800;9.680;2023-03-23T00:57:32;9.90;99.90
15160;DHT22;7680;48.800;9.680;2023-03-23T01:00:05;9.70;99.90
15160;DHT22;7680;48.800;9.680;2023-03-23T01:02:41;9.70;99.90
15160;DHT22;7680;48.800;9.680;2023-03-23T01:05:14;9.60;99.90
15160;DHT22;7680;48.800;9.680;2023-03-23T01:07:47;9.50;99.90
15160;DHT22;7680;48.800;9.680;2023-03-23T01:10:20;9.50;99.90
15160;DHT22;7680;48.800;9.680;2023-03-23T01:12:53;9.50;99.90
15160;DHT22;7680;48.800;9.680;2023-03-23T01:15:25;9.60;99.90
15160;DHT22;7680;48.800;9.680;2023-03-23T01:17:58;9.70;99.90
15160;DHT22;7680;48.800;9.680;2023-03-23T01:20:31;9.70;99.90
15160;DHT22;7680;48.800;9.680;2023-03-23T01:23:03;9.70;99.90
15160;DHT22;7680;48.800;9.680;2023-03-23T01:25:37;9.80;99.90
15160;DHT22;7680;48.800;9.680;2023-03-23T01:28:09;9.80;99.90
15160;DHT22;7680;48.800;9.680;2023-03-23T01:30:42;9.80;99.90
15160;DHT22;7680;48.800;9.680;2023-03-23T01:33:14;9.80;99.90
15160;DHT22;7680;48.800;9.680;2023-03-23T01:35:46;9.90;99.90
15160;DHT22;7680;48.800;9.680;2023-03-23T01:38:18;10.00;99.90
15160;DHT22;7680;48.800;9.680;2023-03-23T01:40:51;10.00;99.90
15160;DHT22;7680;48.800;9.680;2023-03-23T01:43:23;10.00;99.90
15160;DHT22;7680;48.800;9.680;2023-03-23T01:45:56;10.00;99.90
15160;DHT22;7680;48.800;9.680;2023-03-23T01:48:30;10.10;99.90
15160;DHT22;7680;48.800;9.680;2023-03-23T01:51:06;10.10;99.90
15160;DHT22;7680;48.800;9.680;2023-03-23T01:53:45;10.10;99.90
15160;DHT22;7680;48.800;9.680;2023-03-23T01:56:22;10.00;99.90
15160;DHT22;7680;48.800;9.680;2023-03-23T01:58:56;10.00;99.90
15160;DHT22;7680;48.800;9.680;2023-03-23T02:01:28;10.00;99.90
15160;DHT22;7680;48.800;9.680;2023-03-23T02:04:01;10.00;99.90
15160;DHT22;7680;48.800;9.680;2023-03-23T02:06:33;10.00;99.90
15160;DHT22;7680;48.800;9.680;2023-03-23T02:09:05;10.10;99.90
15160;DHT22;7680;48.800;9.680;2023-03-23T02:11:39;10.10;99.90
15160;DHT22;7680;48.800;9.680;2023-03-23T02:14:11;10.20;99.90
15160;DHT22;7680;48.800;9.680;2023-03-23T02:16:47;10.20;99.90
15160;DHT22;7680;48.800;9.680;2023-03-23T02:19:41;10.00;99.90
15160;DHT22;7680;48.800;9.680;2023-03-23T02:22:44;10.00;99.90
15160;DHT22;7680;48.800;9.680;2023-03-23T02:25:43;10.00;99.90
15160;DHT22;7680;48.800;9.680;2023-03-23T02:28:55;10.00;99.90
15160;DHT22;7680;48.800;9.680;2023-03-23T02:31:46;10.00;99.90
15160;DHT22;7680;48.800;9.680;2023-03-23T02:34:30;10.10;99.90
15160;DHT22;7680;48.800;9.680;2023-03-23T02:37:07;10.00;99.90
15160;DHT22;7680;48.800;9.680;2023-03-23T02:39:44;10.00;99.90
15160;DHT22;7680;48.800;9.680;2023-03-23T02:42:23;10.00;99.90
15160;DHT22;7680;48.800;9.680;2023-03-23T02:44:59;10.00;99.90
15160;DHT22;7680;48.800;9.680;2023-03-23T02:47:35;10.00;99.90
15160;DHT22;7680;48.800;9.680;2023-03-23T02:50:13;10.00;99.90
15160;DHT22;7680;48.800;9.680;2023-03-23T02:52:48;10.00;99.90
15160;DHT22;7680;48.800;9.680;2023-03-23T02:55:22;10.00;99.90
15160;DHT22;7680;48.800;9.680;2023-03-23T02:57:55;10.00;99.90
15160;DHT22;7680;48.800;9.680;2023-03-23T03:00:27;10.00;99.90
15160;DHT22;7680;48.800;9.680;2023-03-23T03:03:00;10.00;99.90
15160;DHT22;7680;48.800;9.680;2023-03-23T03:05:40;10.00;99.90
15160;DHT22;7680;48.800;9.680;2023-03-23T03:08:23;10.00;99.90
15160;DHT22;7680;48.800;9.680;2023-03-23T03:11:01;10.00;99.90
15160;DHT22;7680;48.800;9.680;2023-03-23T03:13:42;10.00;99.90
15160;DHT22;7680;48.800;9.680;2023-03-23T03:16:23;10.10;99.90
15160;DHT22;7680;48.800;9.680;2023-03-23T03:19:03;10.00;99.90
15160;DHT22;7680;48.800;9.680;2023-03-23T03:21:42;10.10;99.90
15160;DHT22;7680;48.800;9.680;2023-03-23T03:24:18;10.00;99.90
15160;DHT22;7680;48.800;9.680;2023-03-23T03:26:53;10.10;99.90
15160;DHT22;7680;48.800;9.680;2023-03-23T03:29:31;10.10;99.90
15160;DHT22;7680;48.800;9.680;2023-03-23T03:32:06;10.10;99.90
15160;DHT22;7680;48.800;9.680;2023-03-23T03:34:40;10.10;99.90
15160;DHT22;7680;48.800;9.680;2023-03-23T03:37:14;10.00;99.90
15160;DHT22;7680;48.800;9.680;2023-03-23T03:39:47;10.00;99.90
15160;DHT22;7680;48.800;9.680;2023-03-23T03:42:19;10.00;99.90
15160;DHT22;7680;48.800;9.680;2023-03-23T03:44:51;9.90;99.90
15160;DHT22;7680;48.800;9.680;2023-03-23T03:47:23;9.80;99.90
15160;DHT22;7680;48.800;9.680;2023-03-23T03:49:55;9.70;99.90
15160;DHT22;7680;48.800;9.680;2023-03-23T03:52:28;9.80;99.90
15160;DHT22;7680;48.800;9.680;2023-03-23T03:55:00;9.90;99.90
15160;DHT22;7680;48.800;9.680;2023-03-23T03:57:33;9.90;99.90
15160;DHT22;7680;48.800;9.680;2023-03-23T04:00:07;10.00;99.90
15160;DHT22;7680;48.800;9.680;2023-03-23T04:02:46;10.00;99.90
15160;DHT22;7680;48.800;9.680;2023-03-23T04:05:21;10.00;99.90
15160;DHT22;7680;48.800;9.680;2023-03-23T04:07:55;10.00;99.90
15160;DHT22;7680;48.800;9.680;2023-03-23T04:10:32;10.00;99.90
15160;DHT22;7680;48.800;9.680;2023-03-23T04:13:04;9.90;99.90
15160;DHT22;7680;48.800;9.680;2023-03-23T04:15:36;9.90;99.90
15160;DHT22;7680;48.800;9.680;2023-03-23T04:18:09;9.90;99.90
15160;DHT22;7680;48.800;9.680;2023-03-23T04:20:42;9.90;99.90
15160;DHT22;7680;48.800;9.680;2023-03-23T04:23:17;9.90;99.90
15160;DHT22;7680;48.800;9.680;2023-03-23T04:25:50;9.90;99.90
15160;DHT22;7680;48.800;9.680;2023-03-23T04:28:24;9.90;99.90
15160;DHT22;7680;48.800;9.680;2023-03-23T04:30:56;9.90;99.90
15160;DHT22;7680;48.800;9.680;2023-03-23T04:33:30;9.90;99.90
15160;DHT22;7680;48.800;9.680;2023-03-23T04:36:03;10.00;99.90
15160;DHT22;7680;48.800;9.680;2023-03-23T04:38:38;9.90;99.90
15160;DHT22;7680;48.800;9.680;2023-03-23T04:41:11;9.90;99.90
15160;DHT22;7680;48.800;9.680;2023-03-23T04:43:43;9.90;99.90
15160;DHT22;7680;48.800;9.680;2023-03-23T04:46:15;10.00;99.90
15160;DHT22;7680;48.800;9.680;2023-03-23T04:48:48;10.00;99.90
15160;DHT22;7680;48.800;9.680;2023-03-23T04:51:20;10.00;99.90
15160;DHT22;7680;48.800;9.680;2023-03-23T04:53:54;10.00;99.90
15160;DHT22;7680;48.800;9.680;2023-03-23T04:56:26;10.10;99.90
15160;DHT22;7680;48.800;9.680;2023-03-23T04:58:59;10.10;99.90
15160;DHT22;7680;48.800;9.680;2023-03-23T05:01:31;10.10;99.90
15160;DHT22;7680;48.800;9.680;2023-03-23T05:04:04;10.10;99.90
15160;DHT22;7680;48.800;9.680;2023-03-23T05:06:36;10.10;99.90
15160;DHT22;7680;48.800;9.680;2023-03-23T05:09:10;10.10;99.90
15160;DHT22;7680;48.800;9.680;2023-03-23T05:11:42;10.10;99.90
15160;DHT22;7680;48.800;9.680;2023-03-23T05:14:14;10.00;99.90
15160;DHT22;7680;48.800;9.680;2023-03-23T05:16:47;10.00;99.90
15160;DHT22;7680;48.800;9.680;2023-03-23T05:19:19;10.00;99.90
15160;DHT22;7680;48.800;9.680;2023-03-23T05:21:51;10.10;99.90
15160;DHT22;7680;48.800;9.680;2023-03-23T05:24:26;10.10;99.90
15160;DHT22;7680;48.800;9.680;2023-03-23T05:27:01;10.00;99.90
15160;DHT22;7680;48.800;9.680;2023-03-23T05:29:34;10.10;99.90
15160;DHT22;7680;48.800;9.680;2023-03-23T05:32:07;10.10;99.90
15160;DHT22;7680;48.800;9.680;2023-03-23T05:34:39;10.20;99.90
15160;DHT22;7680;48.800;9.680;2023-03-23T05:37:13;10.20;99.90
15160;DHT22;7680;48.800;9.680;2023-03-23T05:39:46;10.20;99.90
15160;DHT22;7680;48.800;9.680;2023-03-23T05:42:18;10.20;99.90
15160;DHT22;7680;48.800;9.680;2023-03-23T05:44:51;10.20;99.90
15160;DHT22;7680;48.800;9.680;2023-03-23T05:47:23;10.20;99.90
15160;DHT22;7680;48.800;9.680;2023-03-23T05:49:55;10.30;99.90
15160;DHT22;7680;48.800;9.680;2023-03-23T05:52:27;10.30;99.90
15160;DHT22;7680;48.800;9.680;2023-03-23T05:55:06;10.30;99.90
15160;DHT22;7680;48.800;9.680;2023-03-23T05:57:39;10.30;99.90
15160;DHT22;7680;48.800;9.680;2023-03-23T06:00:12;10.30;99.90
15160;DHT22;7680;48.800;9.680;2023-03-23T06:02:53;10.40;99.90
15160;DHT22;7680;48.800;9.680;2023-03-23T06:05:27;10.40;99.90
15160;DHT22;7680;48.800;9.680;2023-03-23T06:07:59;10.40;99.90
15160;DHT22;7680;48.800;9.680;2023-03-23T06:10:33;10.40;99.90
15160;DHT22;7680;48.800;9.680;2023-03-23T06:13:07;10.40;99.90
15160;DHT22;7680;48.800;9.680;2023-03-23T06:15:39;10.40;99.90
15160;DHT22;7680;48.800;9.680;2023-03-23T06:18:11;10.40;99.90
15160;DHT22;7680;48.800;9.680;2023-03-23T06:20:43;10.40;99.90
15160;DHT22;7680;48.800;9.680;2023-03-23T06:23:16;10.50;99.90
15160;DHT22;7680;48.800;9.680;2023-03-23T06:25:49;10.50;99.90
15160;DHT22;7680;48.800;9.680;2023-03-23T06:28:25;10.60;99.90
15160;DHT22;7680;48.800;9.680;2023-03-23T06:30:59;10.70;99.90
15160;DHT22;7680;48.800;9.680;2023-03-23T06:33:31;10.70;99.90
15160;DHT22;7680;48.800;9.680;2023-03-23T06:36:04;10.80;99.90
15160;DHT22;7680;48.800;9.680;2023-03-23T06:38:37;10.80;99.90
15160;DHT22;7680;48.800;9.680;2023-03-23T06:41:10;10.80;99.90
15160;DHT22;7680;48.800;9.680;2023-03-23T06:43:42;10.90;99.90
15160;DHT22;7680;48.800;9.680;2023-03-23T06:46:16;10.90;99.90
15160;DHT22;7680;48.800;9.680;2023-03-23T06:48:49;11.00;99.90
15160;DHT22;7680;48.800;9.680;2023-03-23T06:51:21;11.00;99.90
15160;DHT22;7680;48.800;9.680;2023-03-23T06:53:53;11.00;99.90
15160;DHT22;7680;48.800;9.680;2023-03-23T06:56:27;11.10;99.90
15160;DHT22;7680;48.800;9.680;2023-03-23T06:59:00;11.10;99.90
15160;DHT22;7680;48.800;9.680;2023-03-23T07:01:32;11.10;99.90
15160;DHT22;7680;48.800;9.680;2023-03-23T07:04:04;11.20;99.90
15160;DHT22;7680;48.800;9.680;2023-03-23T07:06:36;11.20;99.90
15160;DHT22;7680;48.800;9.680;2023-03-23T07:09:09;11.20;99.90
15160;DHT22;7680;48.800;9.680;2023-03-23T07:11:42;11.30;99.90
15160;DHT22;7680;48.800;9.680;2023-03-23T07:14:14;11.30;99.90
15160;DHT22;7680;48.800;9.680;2023-03-23T07:16:46;11.30;99.90
15160;DHT22;7680;48.800;9.680;2023-03-23T07:19:18;11.40;99.90
15160;DHT22;7680;48.800;9.680;2023-03-23T07:21:50;11.50;99.90
15160;DHT22;7680;48.800;9.680;2023-03-23T07:24:22;11.50;99.90
15160;DHT22;7680;48.800;9.680;2023-03-23T07:26:56;11.60;99.90
15160;DHT22;7680;48.800;9.680;2023-03-23T07:29:28;11.70;99.90
15160;DHT22;7680;48.800;9.680;2023-03-23T07:32:00;11.80;99.90
15160;DHT22;7680;48.800;9.680;2023-03-23T07:34:32;11.80;99.90
15160;DHT22;7680;48.800;9.680;2023-03-23T07:37:05;11.90;99.90
15160;DHT22;7680;48.800;9.680;2023-03-23T07:39:38;12.00;99.90
15160;DHT22;7680;48.800;9.680;2023-03-23T07:42:12;12.10;99.90
15160;DHT22;7680;48.800;9.680;2023-03-23T07:44:44;12.20;99.90
15160;DHT22;7680;48.800;9.680;2023-03-23T07:47:16;12.20;99.90
15160;DHT22;7680;48.800;9.680;2023-03-23T07:49:49;12.20;99.90
15160;DHT22;7680;48.800;9.680;2023-03-23T07:52:21;12.20;99.90
15160;DHT22;7680;48.800;9.680;2023-03-23T07:54:54;12.20;99.90
15160;DHT22;7680;48.800;9.680;2023-03-23T07:57:28;12.30;99.90
15160;DHT22;7680;48.800;9.680;2023-03-23T08:00:00;12.20;99.90
15160;DHT22;7680;48.800;9.680;2023-03-23T08:02:45;12.20;99.90
15160;DHT22;7680;48.800;9.680;2023-03-23T08:05:19;12.20;99.90
15160;DHT22;7680;48.800;9.680;2023-03-23T08:07:53;12.20;99.90
15160;DHT22;7680;48.800;9.680;2023-03-23T08:10:25;12.20;99.90
15160;DHT22;7680;48.800;9.680;2023-03-23T08:12:59;12.20;99.90
15160;DHT22;7680;48.800;9.680;2023-03-23T08:15:31;12.30;99.90
15160;DHT22;7680;48.800;9.680;2023-03-23T08:18:04;12.30;99.90
15160;DHT22;7680;48.800;9.680;2023-03-23T08:20:36;12.30;99.90
15160;DHT22;7680;48.800;9.680;2023-03-23T08:23:09;12.30;99.90
15160;DHT22;7680;48.800;9.680;2023-03-23T08:25:41;12.40;99.90
15160;DHT22;7680;48.800;9.680;2023-03-23T08:28:15;12.50;99.90
15160;DHT22;7680;48.800;9.680;2023-03-23T08:30:47;12.60;99.90
15160;DHT22;7680;48.800;9.680;2023-03-23T08:33:20;12.70;99.90
15160;DHT22;7680;48.800;9.680;2023-03-23T08:35:56;12.90;99.90
15160;DHT22;7680;48.800;9.680;2023-03-23T08:38:29;13.00;99.90
15160;DHT22;7680;48.800;9.680;2023-03-23T08:41:04;13.10;99.90
15160;DHT22;7680;48.800;9.680;2023-03-23T08:43:39;13.30;99.90
15160;DHT22;7680;48.800;9.680;2023-03-23T08:46:11;13.50;99.90
15160;DHT22;7680;48.800;9.680;2023-03-23T08:48:43;13.70;99.90
15160;DHT22;7680;48.800;9.680;2023-03-23T08:51:16;13.90;99.90
15160;DHT22;7680;48.800;9.680;2023-03-23T08:53:48;14.20;99.90
15160;DHT22;7680;48.800;9.680;2023-03-23T08:56:21;14.60;99.90
15160;DHT22;7680;48.800;9.680;2023-03-23T08:58:55;14.70;99.90
15160;DHT22;7680;48.800;9.680;2023-03-23T09:01:27;15.00;99.90
15160;DHT22;7680;48.800;9.680;2023-03-23T09:03:59;15.00;99.90
15160;DHT22;7680;48.800;9.680;2023-03-23T09:06:31;15.10;99.90
15160;DHT22;7680;48.800;9.680;2023-03-23T09:09:04;15.30;99.90
15160;DHT22;7680;48.800;9.680;2023-03-23T09:11:37;15.30;99.90
15160;DHT22;7680;48.800;9.680;2023-03-23T09:14:11;15.30;99.90
15160;DHT22;7680;48.800;9.680;2023-03-23T09:16:43;15.40;99.90
15160;DHT22;7680;48.800;9.680;2023-03-23T09:19:15;15.40;99.90
15160;DHT22;7680;48.800;9.680;2023-03-23T09:21:48;15.40;99.90
15160;DHT22;7680;48.800;9.680;2023-03-23T09:24:20;15.50;99.90
15160;DHT22;7680;48.800;9.680;2023-03-23T09:26:53;15.60;99.90
15160;DHT22;7680;48.800;9.680;2023-03-23T09:29:26;15.60;99.90
15160;DHT22;7680;48.800;9.680;2023-03-23T09:31:58;15.60;99.90
15160;DHT22;7680;48.800;9.680;2023-03-23T09:34:31;15.70;99.90
15160;DHT22;7680;48.800;9.680;2023-03-23T09:37:06;15.60;99.90
15160;DHT22;7680;48.800;9.680;2023-03-23T09:39:38;15.60;99.90
15160;DHT22;7680;48.800;9.680;2023-03-23T09:42:21;15.70;99.90
15160;DHT22;7680;48.800;9.680;2023-03-23T09:45:09;15.60;99.90
15160;DHT22;7680;48.800;9.680;2023-03-23T09:48:05;15.60;99.90
15160;DHT22;7680;48.800;9.680;2023-03-23T09:50:49;15.80;99.90
15160;DHT22;7680;48.800;9.680;2023-03-23T09:53:28;16.00;99.90
15160;DHT22;7680;48.800;9.680;2023-03-23T09:56:10;16.00;99.90
15160;DHT22;7680;48.800;9.680;2023-03-23T09:58:47;16.00;99.90
15160;DHT22;7680;48.800;9.680;2023-03-23T10:01:25;16.10;99.90
15160;DHT22;7680;48.800;9.680;2023-03-23T10:04:03;16.00;99.90
15160;DHT22;7680;48.800;9.680;2023-03-23T10:06:37;16.20;99.90
15160;DHT22;7680;48.800;9.680;2023-03-23T10:09:13;16.10;99.90
15160;DHT22;7680;48.800;9.680;2023-03-23T10:11:55;16.00;99.90
15160;DHT22;7680;48.800;9.680;2023-03-23T10:15:02;16.00;99.90
15160;DHT22;7680;48.800;9.680;2023-03-23T10:17:51;16.10;99.90
15160;DHT22;7680;48.800;9.680;2023-03-23T10:20:35;16.20;99.90
15160;DHT22;7680;48.800;9.680;2023-03-23T10:23:35;16.00;99.90
15160;DHT22;7680;48.800;9.680;2023-03-23T10:26:22;16.00;99.90
15160;DHT22;7680;48.800;9.680;2023-03-23T10:29:07;16.10;99.90
15160;DHT22;7680;48.800;9.680;2023-03-23T10:31:46;16.20;99.90
15160;DHT22;7680;48.800;9.680;2023-03-23T10:34:28;16.30;99.90
15160;DHT22;7680;48.800;9.680;2023-03-23T10:37:08;16.20;99.90
15160;DHT22;7680;48.800;9.680;2023-03-23T10:39:48;16.30;99.90
15160;DHT22;7680;48.800;9.680;2023-03-23T10:42:26;16.40;99.90
15160;DHT22;7680;48.800;9.680;2023-03-23T10:45:01;16.30;99.90
15160;DHT22;7680;48.800;9.680;2023-03-23T10:47:48;16.40;99.90
15160;DHT22;7680;48.800;9.680;2023-03-23T10:50:26;16.40;99.90
15160;DHT22;7680;48.800;9.680;2023-03-23T10:53:07;16.50;99.90
15160;DHT22;7680;48.800;9.680;2023-03-23T10:55:45;16.50;99.90
15160;DHT22;7680;48.800;9.680;2023-03-23T10:58:23;16.60;99.50
15160;DHT22;7680;48.800;9.680;2023-03-23T11:01:00;16.60;99.90
15160;DHT22;7680;48.800;9.680;2023-03-23T11:03:39;16.60;99.90
15160;DHT22;7680;48.800;9.680;2023-03-23T11:06:23;16.60;99.90
15160;DHT22;7680;48.800;9.680;2023-03-23T11:09:00;16.70;99.90
15160;DHT22;7680;48.800;9.680;2023-03-23T11:11:38;16.60;99.90
15160;DHT22;7680;48.800;9.680;2023-03-23T11:14:17;16.60;99.80
15160;DHT22;7680;48.800;9.680;2023-03-23T11:16:52;16.60;99.90
15160;DHT22;7680;48.800;9.680;2023-03-23T11:19:27;16.60;99.80
15160;DHT22;7680;48.800;9.680;2023-03-23T11:22:06;16.90;99.10
15160;DHT22;7680;48.800;9.680;2023-03-23T11:24:42;16.80;99.40
15160;DHT22;7680;48.800;9.680;2023-03-23T11:27:16;17.10;99.40
15160;DHT22;7680;48.800;9.680;2023-03-23T11:29:50;17.10;99.30
15160;DHT22;7680;48.800;9.680;2023-03-23T11:32:26;17.00;99.00
15160;DHT22;7680;48.800;9.680;2023-03-23T11:35:01;17.10;99.10
15160;DHT22;7680;48.800;9.680;2023-03-23T11:37:41;17.20;99.50
15160;DHT22;7680;48.800;9.680;2023-03-23T11:40:16;17.50;99.40
15160;DHT22;7680;48.800;9.680;2023-03-23T11:42:57;17.50;98.60
15160;DHT22;7680;48.800;9.680;2023-03-23T11:45:33;17.50;98.70
15160;DHT22;7680;48.800;9.680;2023-03-23T11:48:18;17.40;99.50
15160;DHT22;7680;48.800;9.680;2023-03-23T11:50:55;17.40;99.90
15160;DHT22;7680;48.800;9.680;2023-03-23T11:53:39;17.40;99.90
15160;DHT22;7680;48.800;9.680;2023-03-23T11:56:23;17.40;99.90
15160;DHT22;7680;48.800;9.680;2023-03-23T11:58:58;17.20;99.90
15160;DHT22;7680;48.800;9.680;2023-03-23T12:01:46;17.40;99.90
15160;DHT22;7680;48.800;9.680;2023-03-23T12:04:35;17.20;99.90
15160;DHT22;7680;48.800;9.680;2023-03-23T12:07:25;17.10;99.90
15160;DHT22;7680;48.800;9.680;2023-03-23T12:10:23;16.90;99.90
15160;DHT22;7680;48.800;9.680;2023-03-23T12:13:06;17.00;99.90
15160;DHT22;7680;48.800;9.680;2023-03-23T12:15:50;17.00;99.90
15160;DHT22;7680;48.800;9.680;2023-03-23T12:18:40;17.10;99.90
15160;DHT22;7680;48.800;9.680;2023-03-23T12:21:23;17.20;99.90
15160;DHT22;7680;48.800;9.680;2023-03-23T12:24:18;17.30;99.90
15160;DHT22;7680;48.800;9.680;2023-03-23T12:27:02;17.50;99.90
15160;DHT22;7680;48.800;9.680;2023-03-23T12:29:52;17.50;99.90
15160;DHT22;7680;48.800;9.680;2023-03-23T12:32:53;17.50;99.90
15160;DHT22;7680;48.800;9.680;2023-03-23T12:35:41;17.50;99.90
15160;DHT22;7680;48.800;9.680;2023-03-23T12:38:36;17.70;99.90
15160;DHT22;7680;48.800;9.680;2023-03-23T12:41:28;17.70;99.90
15160;DHT22;7680;48.800;9.680;2023-03-23T12:44:07;17.70;99.90
15160;DHT22;7680;48.800;9.680;2023-03-23T12:47:07;17.70;99.90
15160;DHT22;7680;48.800;9.680;2023-03-23T12:49:54;17.80;99.90
15160;DHT22;7680;48.800;9.680;2023-03-23T12:52:32;17.70;99.90
15160;DHT22;7680;48.800;9.680;2023-03-23T12:55:15;17.70;99.90
15160;DHT22;7680;48.800;9.680;2023-03-23T12:57:56;17.60;99.90
15160;DHT22;7680;48.800;9.680;2023-03-23T13:00:46;17.40;99.90
15160;DHT22;7680;48.800;9.680;2023-03-23T13:03:27;17.30;99.90
15160;DHT22;7680;48.800;9.680;2023-03-23T13:06:05;17.20;99.90
15160;DHT22;7680;48.800;9.680;2023-03-23T13:08:42;17.20;99.90
15160;DHT22;7680;48.800;9.680;2023-03-23T13:11:22;17.20;99.90
15160;DHT22;7680;48.800;9.680;2023-03-23T13:14:02;17.30;99.90
15160;DHT22;7680;48.800;9.680;2023-03-23T13:16:49;17.30;99.90
15160;DHT22;7680;48.800;9.680;2023-03-23T13:19:28;17.20;99.90
15160;DHT22;7680;48.800;9.680;2023-03-23T13:22:07;17.30;99.90
15160;DHT22;7680;48.800;9.680;2023-03-23T13:24:45;17.40;99.90
15160;DHT22;7680;48.800;9.680;2023-03-23T13:27:23;17.40;99.90
15160;DHT22;7680;48.800;9.680;2023-03-23T13:29:56;17.50;99.90
15160;DHT22;7680;48.800;9.680;2023-03-23T13:32:33;17.60;99.90
15160;DHT22;7680;48.800;9.680;2023-03-23T13:35:12;17.60;99.90
15160;DHT22;7680;48.800;9.680;2023-03-23T13:37:48;17.60;99.90
15160;DHT22;7680;48.800;9.680;2023-03-23T13:40:26;17.80;99.00
15160;DHT22;7680;48.800;9.680;2023-03-23T13:43:00;17.90;98.70
15160;DHT22;7680;48.800;9.680;2023-03-23T13:45:43;17.80;99.50
15160;DHT22;7680;48.800;9.680;2023-03-23T13:48:21;17.60;99.90
15160;DHT22;7680;48.800;9.680;2023-03-23T13:50:55;17.60;99.20
15160;DHT22;7680;48.800;9.680;2023-03-23T13:53:42;17.60;99.60
15160;DHT22;7680;48.800;9.680;2023-03-23T13:56:18;17.60;99.60
15160;DHT22;7680;48.800;9.680;2023-03-23T13:58:52;17.70;99.30
15160;DHT22;7680;48.800;9.680;2023-03-23T14:01:38;17.60;98.90
15160;DHT22;7680;48.800;9.680;2023-03-23T14:04:16;17.50;99.10
15160;DHT22;7680;48.800;9.680;2023-03-23T14:06:50;17.40;99.20
15160;DHT22;7680;48.800;9.680;2023-03-23T14:09:27;17.50;99.10
15160;DHT22;7680;48.800;9.680;2023-03-23T14:12:02;17.40;99.80
15160;DHT22;7680;48.800;9.680;2023-03-23T14:14:41;17.30;99.80
15160;DHT22;7680;48.800;9.680;2023-03-23T14:17:17;17.30;99.90
15160;DHT22;7680;48.800;9.680;2023-03-23T14:19:53;17.40;99.90
15160;DHT22;7680;48.800;9.680;2023-03-23T14:22:27;17.30;99.80
15160;DHT22;7680;48.800;9.680;2023-03-23T14:25:01;17.30;99.90
15160;DHT22;7680;48.800;9.680;2023-03-23T14:27:39;17.20;99.90
15160;DHT22;7680;48.800;9.680;2023-03-23T14:30:14;17.20;99.90
15160;DHT22;7680;48.800;9.680;2023-03-23T14:32:48;17.20;99.90
15160;DHT22;7680;48.800;9.680;2023-03-23T14:35:25;17.10;99.90
15160;DHT22;7680;48.800;9.680;2023-03-23T14:37:59;17.10;99.90
15160;DHT22;7680;48.800;9.680;2023-03-23T14:40:34;17.10;99.90
15160;DHT22;7680;48.800;9.680;2023-03-23T14:43:06;17.10;99.90
15160;DHT22;7680;48.800;9.680;2023-03-23T14:45:39;17.00;99.90
15160;DHT22;7680;48.800;9.680;2023-03-23T14:48:14;17.00;99.90
15160;DHT22;7680;48.800;9.680;2023-03-23T14:50:51;17.00;99.90
15160;DHT22;7680;48.800;9.680;2023-03-23T14:53:25;17.00;99.90
15160;DHT22;7680;48.800;9.680;2023-03-23T14:56:06;17.00;99.90
15160;DHT22;7680;48.800;9.680;2023-03-23T14:58:44;17.10;99.90
15160;DHT22;7680;48.800;9.680;2023-03-23T15:01:19;17.10;99.90
15160;DHT22;7680;48.800;9.680;2023-03-23T15:03:55;17.30;99.00
15160;DHT22;7680;48.800;9.680;2023-03-23T15:06:32;17.30;98.30
15160;DHT22;7680;48.800;9.680;2023-03-23T15:09:15;17.50;97.70
15160;DHT22;7680;48.800;9.680;2023-03-23T15:11:54;17.30;98.40
15160;DHT22;7680;48.800;9.680;2023-03-23T15:14:30;17.20;97.90
15160;DHT22;7680;48.800;9.680;2023-03-23T15:17:04;17.50;96.30
15160;DHT22;7680;48.800;9.680;2023-03-23T15:19:40;17.60;95.10
15160;DHT22;7680;48.800;9.680;2023-03-23T15:22:21;17.60;95.40
15160;DHT22;7680;48.800;9.680;2023-03-23T15:25:03;17.60;95.00
15160;DHT22;7680;48.800;9.680;2023-03-23T15:27:43;17.60;94.80
15160;DHT22;7680;48.800;9.680;2023-03-23T15:30:31;17.50;94.90
15160;DHT22;7680;48.800;9.680;2023-03-23T15:33:10;17.40;95.00
15160;DHT22;7680;48.800;9.680;2023-03-23T15:35:46;17.50;94.70
15160;DHT22;7680;48.800;9.680;2023-03-23T15:38:22;17.60;94.30
15160;DHT22;7680;48.800;9.680;2023-03-23T15:40:59;17.50;94.40
15160;DHT22;7680;48.800;9.680;2023-03-23T15:43:33;17.40;94.70
15160;DHT22;7680;48.800;9.680;2023-03-23T15:46:20;17.40;94.80
15160;DHT22;7680;48.800;9.680;2023-03-23T15:49:07;17.30;94.60
15160;DHT22;7680;48.800;9.680;2023-03-23T15:51:40;17.20;94.80
15160;DHT22;7680;48.800;9.680;2023-03-23T15:54:16;17.10;95.40
15160;DHT22;7680;48.800;9.680;2023-03-23T15:56:48;17.10;95.00
15160;DHT22;7680;48.800;9.680;2023-03-23T15:59:20;17.10;95.30
15160;DHT22;7680;48.800;9.680;2023-03-23T16:01:53;17.20;95.30
15160;DHT22;7680;48.800;9.680;2023-03-23T16:04:26;17.20;95.10
15160;DHT22;7680;48.800;9.680;2023-03-23T16:07:00;17.20;95.10
15160;DHT22;7680;48.800;9.680;2023-03-23T16:09:34;17.20;94.90
15160;DHT22;7680;48.800;9.680;2023-03-23T16:12:10;17.10;95.40
15160;DHT22;7680;48.800;9.680;2023-03-23T16:14:44;16.90;95.60
15160;DHT22;7680;48.800;9.680;2023-03-23T16:17:19;16.90;95.80
15160;DHT22;7680;48.800;9.680;2023-03-23T16:19:52;16.90;95.90
15160;DHT22;7680;48.800;9.680;2023-03-23T16:22:25;16.90;95.40
15160;DHT22;7680;48.800;9.680;2023-03-23T16:24:59;16.90;95.40
15160;DHT22;7680;48.800;9.680;2023-03-23T16:27:33;17.10;94.80
15160;DHT22;7680;48.800;9.680;2023-03-23T16:30:13;17.00;94.80
15160;DHT22;7680;48.800;9.680;2023-03-23T16:32:48;17.10;94.60
15160;DHT22;7680;48.800;9.680;2023-03-23T16:35:22;17.20;94.20
15160;DHT22;7680;48.800;9.680;2023-03-23T16:37:56;17.10;94.40
15160;DHT22;7680;48.800;9.680;2023-03-23T16:40:41;17.10;94.30
15160;DHT22;7680;48.800;9.680;2023-03-23T16:43:14;17.00;94.50
15160;DHT22;7680;48.800;9.680;2023-03-23T16:45:48;17.10;93.90